sensor_id;sensor_type;location;lat;lon;timestamp;pressure;altitude;pressure_sealevel;temperature;humidity
63190;BME280;49286;44.460;26.114;2023-12-22T00:01:24;99053.59;;;0.98;100.00
63190;BME280;49286;44.460;26.114;2023-12-22T00:03:50;99079.66;;;1.10;100.00
63190;BME280;49286;44.460;26.114;2023-12-22T00:06:15;99074.41;;;1.05;100.00
63190;BME280;49286;44.460;26.114;2023-12-22T00:08:41;98962.28;;;0.38;100.00
63190;BME280;49286;44.460;26.114;2023-12-22T00:11:07;99023.06;;;0.71;100.00
63190;BME280;49286;44.460;26.114;2023-12-22T00:13:32;98951.03;;;0.34;100.00
63190;BME280;49286;44.460;26.114;2023-12-22T00:15:59;98961.53;;;0.45;100.00
63190;BME280;49286;44.460;26.114;2023-12-22T00:18:26;99068.44;;;1.10;100.00
63190;BME280;49286;44.460;26.114;2023-12-22T00:20:52;99058.16;;;1.14;100.00
63190;BME280;49286;44.460;26.114;2023-12-22T00:23:18;99047.53;;;0.94;100.00
63190;BME280;49286;44.460;26.114;2023-12-22T00:25:43;99065.22;;;1.23;100.00
63190;BME280;49286;44.460;26.114;2023-12-22T00:28:09;98945.91;;;0.37;100.00
63190;BME280;49286;44.460;26.114;2023-12-22T00:30:35;99031.25;;;1.00;100.00
63190;BME280;49286;44.460;26.114;2023-12-22T00:33:02;98962.75;;;0.66;100.00
63190;BME280;49286;44.460;26.114;2023-12-22T00:35:29;98929.25;;;0.18;100.00
63190;BME280;49286;44.460;26.114;2023-12-22T00:37:55;98952.16;;;0.50;100.00
63190;BME280;49286;44.460;26.114;2023-12-22T00:40:20;98922.84;;;0.45;100.00
63190;BME280;49286;44.460;26.114;2023-12-22T00:42:46;99029.72;;;1.11;100.00
63190;BME280;49286;44.460;26.114;2023-12-22T00:45:11;99029.81;;;1.17;100.00
63190;BME280;49286;44.460;26.114;2023-12-22T00:47:37;98897.75;;;0.36;100.00
63190;BME280;49286;44.460;26.114;2023-12-22T00:50:03;98955.78;;;0.63;100.00
63190;BME280;49286;44.460;26.114;2023-12-22T00:52:30;98887.16;;;0.21;100.00
63190;BME280;49286;44.460;26.114;2023-12-22T00:54:56;98910.06;;;0.53;100.00
63190;BME280;49286;44.460;26.114;2023-12-22T00:57:22;98884.66;;;0.24;100.00
63190;BME280;49286;44.460;26.114;2023-12-22T00:59:47;98885.72;;;0.37;100.00
63190;BME280;49286;44.460;26.114;2023-12-22T01:02:16;98900.63;;;0.55;100.00
63190;BME280;49286;44.460;26.114;2023-12-22T01:04:42;98971.06;;;1.04;100.00
63190;BME280;49286;44.460;26.114;2023-12-22T01:07:09;98903.41;;;0.70;100.00
63190;BME280;49286;44.460;26.114;2023-12-22T01:09:35;98894.81;;;0.70;100.00
63190;BME280;49286;44.460;26.114;2023-12-22T01:12:02;98939.88;;;0.90;100.00
63190;BME280;49286;44.460;26.114;2023-12-22T01:14:31;98996.31;;;1.22;100.00
63190;BME280;49286;44.460;26.114;2023-12-22T01:16:57;98962.66;;;1.19;100.00
63190;BME280;49286;44.460;26.114;2023-12-22T01:19:24;98952.22;;;1.11;100.00
63190;BME280;49286;44.460;26.114;2023-12-22T01:21:50;98960.84;;;1.10;100.00
63190;BME280;49286;44.460;26.114;2023-12-22T01:24:16;98941.47;;;0.80;100.00
63190;BME280;49286;44.460;26.114;2023-12-22T01:26:41;98911.44;;;0.87;100.00
63190;BME280;49286;44.460;26.114;2023-12-22T01:29:07;98830.72;;;0.38;100.00
63190;BME280;49286;44.460;26.114;2023-12-22T01:31:34;98800.38;;;0.22;100.00
63190;BME280;49286;44.460;26.114;2023-12-22T01:33:59;98835.16;;;0.48;100.00
63190;BME280;49286;44.460;26.114;2023-12-22T01:36:25;98778.84;;;0.19;100.00
63190;BME280;49286;44.460;26.114;2023-12-22T01:38:50;98872.50;;;0.73;100.00
63190;BME280;49286;44.460;26.114;2023-12-22T01:41:16;98885.34;;;0.70;100.00
63190;BME280;49286;44.460;26.114;2023-12-22T01:43:41;98842.78;;;0.40;100.00
63190;BME280;49286;44.460;26.114;2023-12-22T01:46:07;98876.91;;;0.80;100.00
63190;BME280;49286;44.460;26.114;2023-12-22T01:48:34;98845.84;;;0.73;100.00
63190;BME280;49286;44.460;26.114;2023-12-22T01:51:01;98781.63;;;0.35;100.00
63190;BME280;49286;44.460;26.114;2023-12-22T01:53:28;98866.66;;;0.87;100.00
63190;BME280;49286;44.460;26.114;2023-12-22T01:55:54;98865.72;;;0.81;100.00
63190;BME280;49286;44.460;26.114;2023-12-22T01:58:23;98792.53;;;0.15;100.00
63190;BME280;49286;44.460;26.114;2023-12-22T02:00:49;98847.22;;;0.51;100.00
63190;BME280;49286;44.460;26.114;2023-12-22T02:03:16;98818.13;;;0.59;100.00
63190;BME280;49286;44.460;26.114;2023-12-22T02:05:43;98779.03;;;0.33;100.00
63190;BME280;49286;44.460;26.114;2023-12-22T02:08:10;98765.84;;;0.12;100.00
63190;BME280;49286;44.460;26.114;2023-12-22T02:10:36;98848.94;;;0.50;100.00
63190;BME280;49286;44.460;26.114;2023-12-22T02:13:03;98853.59;;;0.74;100.00
63190;BME280;49286;44.460;26.114;2023-12-22T02:15:30;98881.34;;;0.91;100.00
63190;BME280;49286;44.460;26.114;2023-12-22T02:18:06;98763.50;;;0.29;100.00
63190;BME280;49286;44.460;26.114;2023-12-22T02:20:32;98775.69;;;0.40;100.00
63190;BME280;49286;44.460;26.114;2023-12-22T02:22:58;98848.38;;;0.71;100.00
63190;BME280;49286;44.460;26.114;2023-12-22T02:25:24;98867.75;;;1.04;100.00
63190;BME280;49286;44.460;26.114;2023-12-22T02:27:52;98770.53;;;0.42;100.00
63190;BME280;49286;44.460;26.114;2023-12-22T02:33:07;98762.75;;;0.36;100.00
63190;BME280;49286;44.460;26.114;2023-12-22T02:35:36;98760.19;;;0.39;100.00
63190;BME280;49286;44.460;26.114;2023-12-22T02:38:04;98839.94;;;0.83;100.00
63190;BME280;49286;44.460;26.114;2023-12-22T02:40:31;98751.44;;;0.28;100.00
63190;BME280;49286;44.460;26.114;2023-12-22T02:42:58;98790.56;;;0.58;100.00
63190;BME280;49286;44.460;26.114;2023-12-22T02:45:23;98781.03;;;0.53;100.00
63190;BME280;49286;44.460;26.114;2023-12-22T02:47:49;98742.72;;;0.21;100.00
63190;BME280;49286;44.460;26.114;2023-12-22T02:50:16;98754.91;;;0.30;100.00
63190;BME280;49286;44.460;26.114;2023-12-22T02:52:41;98738.09;;;-0.03;100.00
63190;BME280;49286;44.460;26.114;2023-12-22T02:55:08;98753.94;;;0.22;100.00
63190;BME280;49286;44.460;26.114;2023-12-22T02:57:34;98838.88;;;0.69;100.00
63190;BME280;49286;44.460;26.114;2023-12-22T02:59:59;98845.88;;;0.76;100.00
63190;BME280;49286;44.460;26.114;2023-12-22T03:02:25;98857.81;;;0.69;100.00
63190;BME280;49286;44.460;26.114;2023-12-22T03:04:50;98783.34;;;0.34;100.00
63190;BME280;49286;44.460;26.114;2023-12-22T03:07:16;98754.72;;;0.17;100.00
63190;BME280;49286;44.460;26.114;2023-12-22T03:09:43;98788.56;;;0.39;100.00
63190;BME280;49286;44.460;26.114;2023-12-22T03:12:09;98825.00;;;0.60;100.00
63190;BME280;49286;44.460;26.114;2023-12-22T03:14:35;98742.69;;;0.18;100.00
63190;BME280;49286;44.460;26.114;2023-12-22T03:17:04;98763.25;;;0.13;100.00
63190;BME280;49286;44.460;26.114;2023-12-22T03:19:30;98828.56;;;0.70;100.00
63190;BME280;49286;44.460;26.114;2023-12-22T03:21:56;98737.72;;;0.30;100.00
63190;BME280;49286;44.460;26.114;2023-12-22T03:24:23;98762.88;;;0.47;100.00
63190;BME280;49286;44.460;26.114;2023-12-22T03:26:50;98828.56;;;0.70;100.00
63190;BME280;49286;44.460;26.114;2023-12-22T03:29:17;98738.59;;;0.32;100.00
63190;BME280;49286;44.460;26.114;2023-12-22T03:31:44;98830.41;;;0.77;100.00
63190;BME280;49286;44.460;26.114;2023-12-22T03:34:09;98820.19;;;0.87;100.00
63190;BME280;49286;44.460;26.114;2023-12-22T03:36:35;98804.78;;;0.93;100.00
63190;BME280;49286;44.460;26.114;2023-12-22T03:39:01;98758.91;;;0.72;100.00
63190;BME280;49286;44.460;26.114;2023-12-22T03:41:28;98700.13;;;0.48;100.00
63190;BME280;49286;44.460;26.114;2023-12-22T03:43:55;98806.94;;;1.29;100.00
63190;BME280;49286;44.460;26.114;2023-12-22T03:46:21;98813.84;;;1.33;100.00
63190;BME280;49286;44.460;26.114;2023-12-22T03:48:49;98682.31;;;0.69;100.00
63190;BME280;49286;44.460;26.114;2023-12-22T03:51:16;98795.00;;;1.42;100.00
63190;BME280;49286;44.460;26.114;2023-12-22T03:53:41;98683.94;;;0.61;100.00
63190;BME280;49286;44.460;26.114;2023-12-22T03:56:08;98672.91;;;0.76;100.00
63190;BME280;49286;44.460;26.114;2023-12-22T03:58:34;98776.13;;;1.49;100.00
63190;BME280;49286;44.460;26.114;2023-12-22T04:01:00;98730.31;;;1.31;100.00
63190;BME280;49286;44.460;26.114;2023-12-22T04:03:25;98702.56;;;1.10;100.00
63190;BME280;49286;44.460;26.114;2023-12-22T04:05:51;98651.44;;;0.78;100.00
63190;BME280;49286;44.460;26.114;2023-12-22T04:08:17;98739.06;;;1.45;100.00
63190;BME280;49286;44.460;26.114;2023-12-22T04:10:43;98632.72;;;1.01;100.00
63190;BME280;49286;44.460;26.114;2023-12-22T04:13:11;98731.38;;;1.56;100.00
63190;BME280;49286;44.460;26.114;2023-12-22T04:15:36;98691.59;;;1.37;100.00
63190;BME280;49286;44.460;26.114;2023-12-22T04:18:02;98695.88;;;1.35;100.00
63190;BME280;49286;44.460;26.114;2023-12-22T04:20:28;98633.69;;;1.11;100.00
63190;BME280;49286;44.460;26.114;2023-12-22T04:22:53;98709.94;;;1.65;100.00
63190;BME280;49286;44.460;26.114;2023-12-22T04:25:19;98656.31;;;1.42;100.00
63190;BME280;49286;44.460;26.114;2023-12-22T04:27:46;98693.59;;;1.72;100.00
63190;BME280;49286;44.460;26.114;2023-12-22T04:30:13;98702.31;;;1.83;100.00
63190;BME280;49286;44.460;26.114;2023-12-22T04:32:39;98587.28;;;1.23;100.00
63190;BME280;49286;44.460;26.114;2023-12-22T04:35:05;98583.84;;;1.22;100.00
63190;BME280;49286;44.460;26.114;2023-12-22T04:37:31;98665.16;;;1.69;100.00
63190;BME280;49286;44.460;26.114;2023-12-22T04:39:56;98597.66;;;1.31;100.00
63190;BME280;49286;44.460;26.114;2023-12-22T04:42:22;98582.16;;;1.29;100.00
63190;BME280;49286;44.460;26.114;2023-12-22T04:44:47;98689.38;;;1.85;100.00
63190;BME280;49286;44.460;26.114;2023-12-22T04:47:15;98642.63;;;1.54;100.00
63190;BME280;49286;44.460;26.114;2023-12-22T04:49:40;98581.16;;;1.12;100.00
63190;BME280;49286;44.460;26.114;2023-12-22T04:52:06;98545.75;;;0.97;100.00
63190;BME280;49286;44.460;26.114;2023-12-22T04:54:31;98642.53;;;1.42;100.00
63190;BME280;49286;44.460;26.114;2023-12-22T04:56:57;98672.13;;;1.82;100.00
63190;BME280;49286;44.460;26.114;2023-12-22T04:59:22;98643.59;;;1.64;100.00
63190;BME280;49286;44.460;26.114;2023-12-22T05:01:48;98537.13;;;0.95;100.00
63190;BME280;49286;44.460;26.114;2023-12-22T05:04:13;98542.28;;;0.95;100.00
63190;BME280;49286;44.460;26.114;2023-12-22T05:06:39;98496.59;;;0.84;100.00
63190;BME280;49286;44.460;26.114;2023-12-22T05:09:04;98652.28;;;1.80;100.00
63190;BME280;49286;44.460;26.114;2023-12-22T05:11:31;98566.59;;;1.23;100.00
63190;BME280;49286;44.460;26.114;2023-12-22T05:13:56;98629.91;;;1.85;100.00
63190;BME280;49286;44.460;26.114;2023-12-22T05:16:22;98624.66;;;1.69;100.00
63190;BME280;49286;44.460;26.114;2023-12-22T05:18:47;98595.22;;;1.49;100.00
63190;BME280;49286;44.460;26.114;2023-12-22T05:21:13;98525.38;;;1.34;100.00
63190;BME280;49286;44.460;26.114;2023-12-22T05:23:41;98539.22;;;1.46;100.00
63190;BME280;49286;44.460;26.114;2023-12-22T05:26:07;98623.03;;;1.88;100.00
63190;BME280;49286;44.460;26.114;2023-12-22T05:28:33;98543.53;;;1.52;100.00
63190;BME280;49286;44.460;26.114;2023-12-22T05:30:59;98604.16;;;2.08;100.00
63190;BME280;49286;44.460;26.114;2023-12-22T05:33:24;98561.00;;;1.93;100.00
63190;BME280;49286;44.460;26.114;2023-12-22T05:35:50;98581.78;;;2.19;100.00
63190;BME280;49286;44.460;26.114;2023-12-22T05:38:15;98580.09;;;2.18;100.00
63190;BME280;49286;44.460;26.114;2023-12-22T05:40:41;98586.13;;;2.19;100.00
63190;BME280;49286;44.460;26.114;2023-12-22T05:43:08;98535.16;;;1.95;100.00
63190;BME280;49286;44.460;26.114;2023-12-22T05:45:33;98592.19;;;2.36;100.00
63190;BME280;49286;44.460;26.114;2023-12-22T05:47:59;98524.81;;;2.02;100.00
63190;BME280;49286;44.460;26.114;2023-12-22T05:50:24;98573.22;;;2.34;100.00
63190;BME280;49286;44.460;26.114;2023-12-22T05:52:52;98613.84;;;2.58;100.00
63190;BME280;49286;44.460;26.114;2023-12-22T05:55:19;98612.16;;;2.72;100.00
63190;BME280;49286;44.460;26.114;2023-12-22T05:57:44;98591.44;;;2.71;100.00
63190;BME280;49286;44.460;26.114;2023-12-22T06:00:10;98497.31;;;2.32;100.00
63190;BME280;49286;44.460;26.114;2023-12-22T06:02:36;98571.63;;;2.91;100.00
63190;BME280;49286;44.460;26.114;2023-12-22T06:05:02;98495.63;;;2.56;100.00
63190;BME280;49286;44.460;26.114;2023-12-22T06:07:29;98523.25;;;2.78;100.00
63190;BME280;49286;44.460;26.114;2023-12-22T06:09:55;98522.38;;;2.76;100.00
63190;BME280;49286;44.460;26.114;2023-12-22T06:12:20;98553.50;;;3.14;100.00
63190;BME280;49286;44.460;26.114;2023-12-22T06:14:46;98459.41;;;2.60;100.00
63190;BME280;49286;44.460;26.114;2023-12-22T06:17:11;98450.75;;;2.73;100.00
63190;BME280;49286;44.460;26.114;2023-12-22T06:19:37;98511.16;;;3.06;100.00
63190;BME280;49286;44.460;26.114;2023-12-22T06:22:03;98514.59;;;3.16;100.00
63190;BME280;49286;44.460;26.114;2023-12-22T06:24:29;98433.50;;;2.68;100.00
63190;BME280;49286;44.460;26.114;2023-12-22T06:26:55;98435.22;;;2.77;100.00
63190;BME280;49286;44.460;26.114;2023-12-22T06:29:22;98436.06;;;2.62;100.00
63190;BME280;49286;44.460;26.114;2023-12-22T06:31:48;98531.88;;;3.34;100.00
63190;BME280;49286;44.460;26.114;2023-12-22T06:34:18;98524.09;;;3.35;100.00
63190;BME280;49286;44.460;26.114;2023-12-22T06:36:44;98524.09;;;3.35;100.00
63190;BME280;49286;44.460;26.114;2023-12-22T06:39:09;98517.16;;;3.34;100.00
63190;BME280;49286;44.460;26.114;2023-12-22T06:41:35;98420.50;;;2.97;100.00
63190;BME280;49286;44.460;26.114;2023-12-22T06:44:01;98391.19;;;2.70;100.00
63190;BME280;49286;44.460;26.114;2023-12-22T06:46:28;98496.41;;;3.45;100.00
63190;BME280;49286;44.460;26.114;2023-12-22T06:48:56;98512.78;;;3.67;100.00
63190;BME280;49286;44.460;26.114;2023-12-22T06:53:50;98521.44;;;3.66;100.00
63190;BME280;49286;44.460;26.114;2023-12-22T06:56:20;98527.44;;;3.74;100.00
63190;BME280;49286;44.460;26.114;2023-12-22T06:58:47;98523.13;;;3.73;100.00
63190;BME280;49286;44.460;26.114;2023-12-22T07:03:49;98532.63;;;3.74;100.00
63190;BME280;49286;44.460;26.114;2023-12-22T07:06:18;98536.09;;;3.79;100.00
63190;BME280;49286;44.460;26.114;2023-12-22T07:08:44;98519.69;;;3.67;100.00
63190;BME280;49286;44.460;26.114;2023-12-22T07:11:10;98434.25;;;3.21;100.00
63190;BME280;49286;44.460;26.114;2023-12-22T07:13:37;98421.38;;;2.93;100.00
63190;BME280;49286;44.460;26.114;2023-12-22T07:16:03;98506.78;;;3.54;100.00
63190;BME280;49286;44.460;26.114;2023-12-22T07:18:32;98437.72;;;3.20;100.00
63190;BME280;49286;44.460;26.114;2023-12-22T07:21:00;98495.53;;;3.57;100.00
63190;BME280;49286;44.460;26.114;2023-12-22T07:23:26;98535.22;;;3.82;100.00
63190;BME280;49286;44.460;26.114;2023-12-22T07:25:51;98533.47;;;3.81;100.00
63190;BME280;49286;44.460;26.114;2023-12-22T07:28:17;98517.97;;;3.69;100.00
63190;BME280;49286;44.460;26.114;2023-12-22T07:30:42;98418.72;;;3.21;100.00
63190;BME280;49286;44.460;26.114;2023-12-22T07:33:09;98419.53;;;3.36;100.00
63190;BME280;49286;44.460;26.114;2023-12-22T07:35:35;98434.22;;;3.36;100.00
63190;BME280;49286;44.460;26.114;2023-12-22T07:38:00;98537.75;;;3.97;100.00
63190;BME280;49286;44.460;26.114;2023-12-22T07:40:28;98524.78;;;3.99;100.00
63190;BME280;49286;44.460;26.114;2023-12-22T07:42:56;98438.53;;;3.43;100.00
63190;BME280;49286;44.460;26.114;2023-12-22T07:45:21;98512.69;;;3.90;100.00
63190;BME280;49286;44.460;26.114;2023-12-22T07:47:47;98550.66;;;4.14;100.00
63190;BME280;49286;44.460;26.114;2023-12-22T07:50:12;98536.81;;;4.14;100.00
63190;BME280;49286;44.460;26.114;2023-12-22T07:52:38;98435.91;;;3.48;100.00
63190;BME280;49286;44.460;26.114;2023-12-22T07:55:08;98516.03;;;4.18;100.00
63190;BME280;49286;44.460;26.114;2023-12-22T07:57:37;98450.50;;;3.73;100.00
63190;BME280;49286;44.460;26.114;2023-12-22T08:00:05;98534.97;;;4.37;100.00
63190;BME280;49286;44.460;26.114;2023-12-22T08:02:32;98418.56;;;3.64;100.00
63190;BME280;49286;44.460;26.114;2023-12-22T08:04:58;98431.44;;;3.85;100.00
63190;BME280;49286;44.460;26.114;2023-12-22T08:07:24;98456.44;;;4.01;100.00
63190;BME280;49286;44.460;26.114;2023-12-22T08:09:49;98423.66;;;3.85;100.00
63190;BME280;49286;44.460;26.114;2023-12-22T08:12:15;98484.94;;;4.05;100.00
63190;BME280;49286;44.460;26.114;2023-12-22T08:14:42;98434.84;;;3.90;100.00
63190;BME280;49286;44.460;26.114;2023-12-22T08:17:07;98533.16;;;4.49;100.00
63190;BME280;49286;44.460;26.114;2023-12-22T08:19:33;98521.88;;;4.59;100.00
63190;BME280;49286;44.460;26.114;2023-12-22T08:21:59;98412.31;;;4.01;100.00
63190;BME280;49286;44.460;26.114;2023-12-22T08:24:25;98503.53;;;4.77;100.00
63190;BME280;49286;44.460;26.114;2023-12-22T08:26:50;98459.53;;;4.57;100.00
63190;BME280;49286;44.460;26.114;2023-12-22T08:29:17;98323.25;;;3.98;100.00
63190;BME280;49286;44.460;26.114;2023-12-22T08:31:44;98439.34;;;4.89;100.00
63190;BME280;49286;44.460;26.114;2023-12-22T08:34:09;98370.31;;;4.63;100.00
63190;BME280;49286;44.460;26.114;2023-12-22T08:36:35;98428.75;;;5.10;100.00
63190;BME280;49286;44.460;26.114;2023-12-22T08:39:00;98425.34;;;5.05;100.00
63190;BME280;49286;44.460;26.114;2023-12-22T08:41:26;98356.53;;;4.55;100.00
63190;BME280;49286;44.460;26.114;2023-12-22T08:43:53;98449.44;;;5.21;100.00
63190;BME280;49286;44.460;26.114;2023-12-22T08:46:18;98448.50;;;5.26;100.00
63190;BME280;49286;44.460;26.114;2023-12-22T08:48:44;98363.22;;;4.79;100.00
63190;BME280;49286;44.460;26.114;2023-12-22T08:51:09;98416.44;;;5.27;100.00
63190;BME280;49286;44.460;26.114;2023-12-22T08:53:35;98423.28;;;5.36;100.00
63190;BME280;49286;44.460;26.114;2023-12-22T08:56:03;98418.69;;;5.60;100.00
63190;BME280;49286;44.460;26.114;2023-12-22T08:58:29;98371.97;;;5.49;100.00
63190;BME280;49286;44.460;26.114;2023-12-22T09:00:57;98278.19;;;4.95;100.00
63190;BME280;49286;44.460;26.114;2023-12-22T09:03:23;98359.13;;;5.37;100.00
63190;BME280;49286;44.460;26.114;2023-12-22T09:05:49;98380.00;;;5.29;100.00
63190;BME280;49286;44.460;26.114;2023-12-22T09:08:14;98390.13;;;5.52;100.00
63190;BME280;49286;44.460;26.114;2023-12-22T09:10:40;98324.75;;;5.10;100.00
63190;BME280;49286;44.460;26.114;2023-12-22T09:13:05;98294.47;;;5.09;100.00
63190;BME280;49286;44.460;26.114;2023-12-22T09:15:31;98290.84;;;5.21;100.00
63190;BME280;49286;44.460;26.114;2023-12-22T09:17:57;98336.88;;;5.13;100.00
63190;BME280;49286;44.460;26.114;2023-12-22T09:20:22;98404.03;;;5.51;100.00
63190;BME280;49286;44.460;26.114;2023-12-22T09:22:48;98328.31;;;5.03;100.00
63190;BME280;49286;44.460;26.114;2023-12-22T09:25:16;98413.25;;;5.77;100.00
63190;BME280;49286;44.460;26.114;2023-12-22T09:27:42;98356.25;;;5.58;100.00
63190;BME280;49286;44.460;26.114;2023-12-22T09:30:10;98438.91;;;6.07;100.00
63190;BME280;49286;44.460;26.114;2023-12-22T09:32:36;98330.28;;;5.55;100.00
63190;BME280;49286;44.460;26.114;2023-12-22T09:35:01;98427.06;;;5.82;100.00
63190;BME280;49286;44.460;26.114;2023-12-22T09:37:27;98314.13;;;5.30;100.00
63190;BME280;49286;44.460;26.114;2023-12-22T09:39:52;98259.84;;;5.05;100.00
63190;BME280;49286;44.460;26.114;2023-12-22T09:42:20;98404.16;;;6.08;100.00
63190;BME280;49286;44.460;26.114;2023-12-22T09:44:49;98309.38;;;5.61;100.00
63190;BME280;49286;44.460;26.114;2023-12-22T09:47:15;98394.13;;;5.81;100.00
63190;BME280;49286;44.460;26.114;2023-12-22T09:49:43;98352.81;;;5.56;100.00
63190;BME280;49286;44.460;26.114;2023-12-22T09:52:11;98205.44;;;4.93;100.00
63190;BME280;49286;44.460;26.114;2023-12-22T09:54:37;98390.41;;;5.99;100.00
63190;BME280;49286;44.460;26.114;2023-12-22T09:57:05;98254.88;;;5.54;100.00
63190;BME280;49286;44.460;26.114;2023-12-22T09:59:32;98326.16;;;6.02;100.00
63190;BME280;49286;44.460;26.114;2023-12-22T10:02:00;98346.28;;;6.47;100.00
63190;BME280;49286;44.460;26.114;2023-12-22T10:04:28;98291.19;;;6.19;100.00
63190;BME280;49286;44.460;26.114;2023-12-22T10:06:58;98342.69;;;6.54;100.00
63190;BME280;49286;44.460;26.114;2023-12-22T10:09:25;98344.22;;;6.66;100.00
63190;BME280;49286;44.460;26.114;2023-12-22T10:11:52;98332.03;;;6.68;100.00
63190;BME280;49286;44.460;26.114;2023-12-22T10:14:20;98249.44;;;6.23;100.00
63190;BME280;49286;44.460;26.114;2023-12-22T10:16:53;98288.34;;;6.32;100.00
63190;BME280;49286;44.460;26.114;2023-12-22T10:19:19;98322.03;;;6.91;100.00
63190;BME280;49286;44.460;26.114;2023-12-22T10:21:51;98313.88;;;7.07;100.00
63190;BME280;49286;44.460;26.114;2023-12-22T10:24:39;98310.41;;;7.08;100.00
63190;BME280;49286;44.460;26.114;2023-12-22T10:27:05;98296.50;;;6.62;100.00
63190;BME280;49286;44.460;26.114;2023-12-22T10:29:31;98148.50;;;5.88;100.00
63190;BME280;49286;44.460;26.114;2023-12-22T10:31:59;98190.56;;;6.16;100.00
63190;BME280;49286;44.460;26.114;2023-12-22T10:34:26;98199.50;;;6.48;100.00
63190;BME280;49286;44.460;26.114;2023-12-22T10:36:51;98261.84;;;7.02;100.00
63190;BME280;49286;44.460;26.114;2023-12-22T10:39:17;98277.75;;;7.32;100.00
63190;BME280;49286;44.460;26.114;2023-12-22T10:41:43;98294.75;;;7.50;100.00
63190;BME280;49286;44.460;26.114;2023-12-22T10:44:09;98194.38;;;6.88;100.00
63190;BME280;49286;44.460;26.114;2023-12-22T10:46:35;98194.47;;;7.23;100.00
63190;BME280;49286;44.460;26.114;2023-12-22T10:49:02;98247.81;;;7.86;100.00
63190;BME280;49286;44.460;26.114;2023-12-22T10:51:28;98267.22;;;7.75;100.00
63190;BME280;49286;44.460;26.114;2023-12-22T10:53:57;98239.16;;;7.46;100.00
63190;BME280;49286;44.460;26.114;2023-12-22T10:56:23;98174.56;;;7.18;100.00
63190;BME280;49286;44.460;26.114;2023-12-22T10:58:51;98210.28;;;7.15;100.00
63190;BME280;49286;44.460;26.114;2023-12-22T11:01:17;98264.69;;;7.32;100.00
63190;BME280;49286;44.460;26.114;2023-12-22T11:03:50;98185.16;;;6.72;100.00
63190;BME280;49286;44.460;26.114;2023-12-22T11:06:16;98185.53;;;6.52;100.00
63190;BME280;49286;44.460;26.114;2023-12-22T11:08:44;98224.53;;;6.57;100.00
63190;BME280;49286;44.460;26.114;2023-12-22T11:11:27;98297.81;;;6.86;100.00
63190;BME280;49286;44.460;26.114;2023-12-22T11:13:56;98281.00;;;6.54;100.00
63190;BME280;49286;44.460;26.114;2023-12-22T11:16:27;98288.00;;;6.97;100.00
63190;BME280;49286;44.460;26.114;2023-12-22T11:18:55;98260.47;;;6.39;100.00
63190;BME280;49286;44.460;26.114;2023-12-22T11:21:22;98250.81;;;6.44;100.00
63190;BME280;49286;44.460;26.114;2023-12-22T11:23:49;98253.06;;;6.15;100.00
63190;BME280;49286;44.460;26.114;2023-12-22T11:26:17;98288.22;;;6.39;100.00
63190;BME280;49286;44.460;26.114;2023-12-22T11:28:45;98286.22;;;6.53;100.00
63190;BME280;49286;44.460;26.114;2023-12-22T11:31:11;98302.09;;;6.41;100.00
63190;BME280;49286;44.460;26.114;2023-12-22T11:33:40;98301.56;;;6.20;100.00
63190;BME280;49286;44.460;26.114;2023-12-22T11:36:08;98315.50;;;6.18;100.00
63190;BME280;49286;44.460;26.114;2023-12-22T11:38:35;98273.50;;;5.83;100.00
63190;BME280;49286;44.460;26.114;2023-12-22T11:41:01;98311.28;;;6.10;100.00
63190;BME280;49286;44.460;26.114;2023-12-22T11:43:29;98311.50;;;5.93;100.00
63190;BME280;49286;44.460;26.114;2023-12-22T11:46:01;98286.25;;;6.02;100.00
63190;BME280;49286;44.460;26.114;2023-12-22T11:48:28;98197.44;;;5.67;100.00
63190;BME280;49286;44.460;26.114;2023-12-22T11:50:54;98259.19;;;6.12;100.00
63190;BME280;49286;44.460;26.114;2023-12-22T11:53:25;98274.19;;;5.95;100.00
63190;BME280;49286;44.460;26.114;2023-12-22T11:56:01;98232.72;;;5.85;100.00
63190;BME280;49286;44.460;26.114;2023-12-22T11:58:35;98287.81;;;6.12;100.00
63190;BME280;49286;44.460;26.114;2023-12-22T12:01:03;98193.00;;;5.72;100.00
63190;BME280;49286;44.460;26.114;2023-12-22T12:03:30;98290.84;;;6.39;100.00
63190;BME280;49286;44.460;26.114;2023-12-22T12:08:37;98330.66;;;6.47;100.00
63190;BME280;49286;44.460;26.114;2023-12-22T12:11:02;98217.41;;;5.65;100.00
63190;BME280;49286;44.460;26.114;2023-12-22T12:13:31;98319.47;;;6.42;100.00
63190;BME280;49286;44.460;26.114;2023-12-22T12:15:58;98300.31;;;6.43;100.00
63190;BME280;49286;44.460;26.114;2023-12-22T12:18:30;98214.31;;;5.96;100.00
63190;BME280;49286;44.460;26.114;2023-12-22T12:20:56;98280.41;;;6.39;100.00
63190;BME280;49286;44.460;26.114;2023-12-22T12:23:26;98197.84;;;5.96;100.00
63190;BME280;49286;44.460;26.114;2023-12-22T12:25:53;98245.03;;;6.27;100.00
63190;BME280;49286;44.460;26.114;2023-12-22T12:28:32;98268.91;;;6.52;100.00
63190;BME280;49286;44.460;26.114;2023-12-22T12:31:03;98284.59;;;6.49;100.00
63190;BME280;49286;44.460;26.114;2023-12-22T12:33:29;98292.25;;;6.57;100.00
63190;BME280;49286;44.460;26.114;2023-12-22T12:35:58;98299.16;;;6.61;100.00
63190;BME280;49286;44.460;26.114;2023-12-22T12:38:43;98304.19;;;6.70;100.00
63190;BME280;49286;44.460;26.114;2023-12-22T12:41:11;98218.22;;;6.22;100.00
63190;BME280;49286;44.460;26.114;2023-12-22T12:43:41;98284.38;;;6.60;100.00
63190;BME280;49286;44.460;26.114;2023-12-22T12:46:08;98251.81;;;6.37;100.00
63190;BME280;49286;44.460;26.114;2023-12-22T12:48:34;98296.22;;;6.78;100.00
63190;BME280;49286;44.460;26.114;2023-12-22T12:51:06;98280.66;;;6.73;100.00
63190;BME280;49286;44.460;26.114;2023-12-22T12:53:33;98304.97;;;6.73;100.00
63190;BME280;49286;44.460;26.114;2023-12-22T12:56:00;98279.38;;;6.49;100.00
63190;BME280;49286;44.460;26.114;2023-12-22T12:58:32;98298.31;;;6.59;100.00